sensor_id;sensor_type;location;lat;lon;timestamp;pressure;altitude;pressure_sealevel;temperature;humidity
31162;BME280;17796;49.296;-117.656;2022-08-20T00:00:07;95600;;;30.07803;24.95216
31162;BME280;17796;49.296;-117.656;2022-08-20T00:15:15;95600;;;32.90629;22.31393
31162;BME280;17796;49.296;-117.656;2022-08-20T00:30:20;95600;;;32.74935;22.26717
31162;BME280;17796;49.296;-117.656;2022-08-20T00:45:26;95500;;;31.80776;24.61721
31162;BME280;17796;49.296;-117.656;2022-08-20T01:00:34;95500;;;33.50543;23.30472
31162;BME280;17796;49.296;-117.656;2022-08-20T01:15:40;95500;;;30.67906;25.5891
31162;BME280;17796;49.296;-117.656;2022-08-20T01:30:46;95500;;;28.77305;27.80131
31162;BME280;17796;49.296;-117.656;2022-08-20T01:45:50;95500;;;28.31307;28.14672
31162;BME280;17796;49.296;-117.656;2022-08-20T02:00:56;95600;;;29.09325;27.19317
31162;BME280;17796;49.296;-117.656;2022-08-20T02:16:00;95600;;;28.80195;28.48669
31162;BME280;17796;49.296;-117.656;2022-08-20T02:31:03;95600;;;29.41442;27.46701
31162;BME280;17796;49.296;-117.656;2022-08-20T02:46:07;95600;;;28.84071;28.55061
31162;BME280;17796;49.296;-117.656;2022-08-20T03:01:12;95600;;;28.39439;29.25532
31162;BME280;17796;49.296;-117.656;2022-08-20T03:16:18;95700;;;27.0761;30.93548
31162;BME280;17796;49.296;-117.656;2022-08-20T03:31:21;95700;;;27.57546;29.94467
31162;BME280;17796;49.296;-117.656;2022-08-20T03:46:25;95700;;;26.58118;31.94718
31162;BME280;17796;49.296;-117.656;2022-08-20T04:01:28;95700;;;27.01193;31.51405
31162;BME280;17796;49.296;-117.656;2022-08-20T04:16:32;95700;;;25.79848;34.02975
31162;BME280;17796;49.296;-117.656;2022-08-20T04:31:36;95700;;;26.61835;31.54054
31162;BME280;17796;49.296;-117.656;2022-08-20T04:46:41;95800;;;25.51513;34.49762
31162;BME280;17796;49.296;-117.656;2022-08-20T05:01:44;95800;;;25.51164;34.19281
31162;BME280;17796;49.296;-117.656;2022-08-20T05:16:48;95800;;;25.18446;34.61988
31162;BME280;17796;49.296;-117.656;2022-08-20T05:31:52;95800;;;25.76671;33.99508
31162;BME280;17796;49.296;-117.656;2022-08-20T05:46:56;95800;;;25.27658;34.87629
31162;BME280;17796;49.296;-117.656;2022-08-20T06:02:00;95800;;;25.09901;34.74416
31162;BME280;17796;49.296;-117.656;2022-08-20T06:17:04;95800;;;25.21559;34.90647
31162;BME280;17796;49.296;-117.656;2022-08-20T06:32:10;95800;;;23.92783;38.22346
31162;BME280;17796;49.296;-117.656;2022-08-20T06:47:16;95700;;;24.03615;37.04346
31162;BME280;17796;49.296;-117.656;2022-08-20T07:02:20;95800;;;24.8163;35.53255
31162;BME280;17796;49.296;-117.656;2022-08-20T07:17:23;95700;;;23.7077;37.96242
31162;BME280;17796;49.296;-117.656;2022-08-20T07:32:27;95800;;;23.75408;37.74623
31162;BME280;17796;49.296;-117.656;2022-08-20T07:47:31;95800;;;24.13303;37.0192
31162;BME280;17796;49.296;-117.656;2022-08-20T08:02:35;95800;;;24.8109;35.14053
31162;BME280;17796;49.296;-117.656;2022-08-20T08:17:40;95800;;;24.05044;37.40535
31162;BME280;17796;49.296;-117.656;2022-08-20T08:32:45;95700;;;24.16702;37.5854
31162;BME280;17796;49.296;-117.656;2022-08-20T08:47:49;95800;;;24.62317;36.17839
31162;BME280;17796;49.296;-117.656;2022-08-20T09:02:53;95800;;;24.16353;37.11821
31162;BME280;17796;49.296;-117.656;2022-08-20T09:18:00;95800;;;23.78235;39.03521
31162;BME280;17796;49.296;-117.656;2022-08-20T09:33:03;95800;;;23.39577;39.18268
31162;BME280;17796;49.296;-117.656;2022-08-20T09:48:07;95800;;;24.24008;36.33465
31162;BME280;17796;49.296;-117.656;2022-08-20T10:03:11;95800;;;23.58446;39.77644
31162;BME280;17796;49.296;-117.656;2022-08-20T10:18:14;95800;;;24.03551;37.38212
31162;BME280;17796;49.296;-117.656;2022-08-20T10:33:18;95800;;;23.71946;38.90721
31162;BME280;17796;49.296;-117.656;2022-08-20T10:48:22;95900;;;23.67784;39.20479
31162;BME280;17796;49.296;-117.656;2022-08-20T11:03:26;95900;;;22.17983;44.37887
31162;BME280;17796;49.296;-117.656;2022-08-20T11:18:30;95900;;;23.48058;38.96084
31162;BME280;17796;49.296;-117.656;2022-08-20T11:33:34;95900;;;23.50727;39.68925
31162;BME280;17796;49.296;-117.656;2022-08-20T11:48:37;95900;;;23.30461;41.07013
31162;BME280;17796;49.296;-117.656;2022-08-20T12:03:41;95900;;;23.15277;41.01192
31162;BME280;17796;49.296;-117.656;2022-08-20T12:18:45;95900;;;22.89612;40.42431
31162;BME280;17796;49.296;-117.656;2022-08-20T12:33:50;95900;;;22.1379;44.65702
31162;BME280;17796;49.296;-117.656;2022-08-20T12:48:54;95900;;;22.45618;41.75569
31162;BME280;17796;49.296;-117.656;2022-08-20T13:03:57;95900;;;22.32055;42.92279
31162;BME280;17796;49.296;-117.656;2022-08-20T13:19:01;95900;;;22.14076;45.37635
31162;BME280;17796;49.296;-117.656;2022-08-20T13:34:05;95900;;;20.99472;48.82821
31162;BME280;17796;49.296;-117.656;2022-08-20T13:49:08;95900;;;22.34501;43.94479
31162;BME280;17796;49.296;-117.656;2022-08-20T14:04:12;95900;;;21.93906;46.15689
31162;BME280;17796;49.296;-117.656;2022-08-20T14:19:15;95900;;;22.45523;45.05445
31162;BME280;17796;49.296;-117.656;2022-08-20T14:34:19;95900;;;22.64359;44.60318
31162;BME280;17796;49.296;-117.656;2022-08-20T14:49:23;95900;;;23.35543;44.96954
31162;BME280;17796;49.296;-117.656;2022-08-20T15:04:26;95900;;;22.14775;47.51607
31162;BME280;17796;49.296;-117.656;2022-08-20T15:19:30;95900;;;23.42087;44.69085
31162;BME280;17796;49.296;-117.656;2022-08-20T15:34:34;96000;;;24.25723;41.9976
31162;BME280;17796;49.296;-117.656;2022-08-20T15:49:38;96000;;;24.42114;41.63605
31162;BME280;17796;49.296;-117.656;2022-08-20T16:05:16;96000;;;23.87288;44.09452
31162;BME280;17796;49.296;-117.656;2022-08-20T16:20:25;96000;;;23.86589;45.43392
31162;BME280;17796;49.296;-117.656;2022-08-20T16:35:34;96000;;;24.64477;42.04493
31162;BME280;17796;49.296;-117.656;2022-08-20T16:50:46;96000;;;25.12537;40.84731
31162;BME280;17796;49.296;-117.656;2022-08-20T17:05:57;96000;;;25.05962;42.45461
31162;BME280;17796;49.296;-117.656;2022-08-20T17:21:03;96000;;;27.09293;37.74217
31162;BME280;17796;49.296;-117.656;2022-08-20T17:36:17;96000;;;27.44935;36.69767
31162;BME280;17796;49.296;-117.656;2022-08-20T17:51:22;96000;;;29.1355;33.84788
31162;BME280;17796;49.296;-117.656;2022-08-20T18:06:33;96000;;;28.83436;32.79587
31162;BME280;17796;49.296;-117.656;2022-08-20T18:22:06;96000;;;29.62725;32.20532
31162;BME280;17796;49.296;-117.656;2022-08-20T18:37:20;96000;;;28.84802;32.83695
31162;BME280;17796;49.296;-117.656;2022-08-20T18:52:28;96000;;;29.81754;30.61944
31162;BME280;17796;49.296;-117.656;2022-08-20T19:07:35;96000;;;29.55737;31.28335
31162;BME280;17796;49.296;-117.656;2022-08-20T19:22:42;96000;;;30.96687;29.30045
31162;BME280;17796;49.296;-117.656;2022-08-20T19:37:47;96000;;;28.05386;33.86149
31162;BME280;17796;49.296;-117.656;2022-08-20T19:52:53;96000;;;27.59833;35.37728
31162;BME280;17796;49.296;-117.656;2022-08-20T20:08:05;96000;;;26.18729;38.40695
31162;BME280;17796;49.296;-117.656;2022-08-20T20:23:12;96000;;;26.74859;37.31057
31162;BME280;17796;49.296;-117.656;2022-08-20T20:38:23;96000;;;28.08658;35.8241
31162;BME280;17796;49.296;-117.656;2022-08-20T20:53:30;96000;;;30.3401;30.10173
31162;BME280;17796;49.296;-117.656;2022-08-20T21:08:37;96000;;;28.74414;33.53607
31162;BME280;17796;49.296;-117.656;2022-08-20T21:23:41;96000;;;28.92299;33.16635
31162;BME280;17796;49.296;-117.656;2022-08-20T21:38:45;96000;;;31.1381;28.9269
31162;BME280;17796;49.296;-117.656;2022-08-20T21:53:48;96000;;;30.9513;29.40192
31162;BME280;17796;49.296;-117.656;2022-08-20T22:08:52;95900;;;30.99546;29.62646
31162;BME280;17796;49.296;-117.656;2022-08-20T22:23:56;95900;;;31.54504;28.32557
31162;BME280;17796;49.296;-117.656;2022-08-20T22:39:02;95900;;;34.04136;23.67118
31162;BME280;17796;49.296;-117.656;2022-08-20T22:54:06;95900;;;32.50633;26.21317
31162;BME280;17796;49.296;-117.656;2022-08-20T23:09:13;95900;;;32.53206;26.04512
31162;BME280;17796;49.296;-117.656;2022-08-20T23:24:17;95900;;;32.39228;25.23867
31162;BME280;17796;49.296;-117.656;2022-08-20T23:39:21;95900;;;32.75571;25.32028
31162;BME280;17796;49.296;-117.656;2022-08-20T23:54:26;95900;;;31.20481;27.47967
